sensor_id;sensor_type;location;lat;lon;timestamp;P1;durP1;ratioP1;P2;durP2;ratioP2
31043;SDS011;17710;52.520;13.352;2022-10-23T00:01:34;8.57;;;4.10;;
31043;SDS011;17710;52.520;13.352;2022-10-23T00:04:02;8.05;;;4.03;;
31043;SDS011;17710;52.520;13.352;2022-10-23T00:06:32;9.85;;;4.47;;
31043;SDS011;17710;52.520;13.352;2022-10-23T00:09:00;7.55;;;4.15;;
31043;SDS011;17710;52.520;13.352;2022-10-23T00:11:27;10.25;;;4.88;;
31043;SDS011;17710;52.520;13.352;2022-10-23T00:13:56;7.28;;;4.15;;
31043;SDS011;17710;52.520;13.352;2022-10-23T00:16:24;11.27;;;4.60;;
31043;SDS011;17710;52.520;13.352;2022-10-23T00:18:50;15.00;;;4.22;;
31043;SDS011;17710;52.520;13.352;2022-10-23T00:21:16;9.35;;;5.00;;
31043;SDS011;17710;52.520;13.352;2022-10-23T00:23:45;11.75;;;4.90;;
31043;SDS011;17710;52.520;13.352;2022-10-23T00:26:11;13.90;;;4.57;;
31043;SDS011;17710;52.520;13.352;2022-10-23T00:28:39;11.85;;;4.97;;
31043;SDS011;17710;52.520;13.352;2022-10-23T00:31:06;10.85;;;4.55;;
31043;SDS011;17710;52.520;13.352;2022-10-23T00:33:33;18.02;;;5.95;;
31043;SDS011;17710;52.520;13.352;2022-10-23T00:35:59;7.80;;;4.57;;
31043;SDS011;17710;52.520;13.352;2022-10-23T00:38:28;8.80;;;4.47;;
31043;SDS011;17710;52.520;13.352;2022-10-23T00:40:55;8.32;;;4.28;;
31043;SDS011;17710;52.520;13.352;2022-10-23T00:43:23;8.70;;;4.72;;
31043;SDS011;17710;52.520;13.352;2022-10-23T00:45:51;8.23;;;4.28;;
31043;SDS011;17710;52.520;13.352;2022-10-23T00:48:18;10.10;;;5.03;;
31043;SDS011;17710;52.520;13.352;2022-10-23T00:50:45;10.65;;;4.55;;
31043;SDS011;17710;52.520;13.352;2022-10-23T00:53:13;12.05;;;4.22;;
31043;SDS011;17710;52.520;13.352;2022-10-23T00:55:42;8.70;;;3.65;;
31043;SDS011;17710;52.520;13.352;2022-10-23T00:58:12;7.75;;;3.80;;
31043;SDS011;17710;52.520;13.352;2022-10-23T01:00:41;6.97;;;4.15;;
31043;SDS011;17710;52.520;13.352;2022-10-23T01:03:10;8.52;;;3.80;;
31043;SDS011;17710;52.520;13.352;2022-10-23T01:05:40;10.35;;;3.88;;
31043;SDS011;17710;52.520;13.352;2022-10-23T01:08:14;8.88;;;3.90;;
31043;SDS011;17710;52.520;13.352;2022-10-23T01:10:46;8.45;;;3.92;;
31043;SDS011;17710;52.520;13.352;2022-10-23T01:13:20;10.98;;;4.00;;
31043;SDS011;17710;52.520;13.352;2022-10-23T01:15:55;6.78;;;4.05;;
31043;SDS011;17710;52.520;13.352;2022-10-23T01:18:29;11.88;;;3.75;;
31043;SDS011;17710;52.520;13.352;2022-10-23T01:21:04;8.57;;;4.22;;
31043;SDS011;17710;52.520;13.352;2022-10-23T01:23:41;11.02;;;3.53;;
31043;SDS011;17710;52.520;13.352;2022-10-23T01:29:18;12.88;;;4.10;;
31043;SDS011;17710;52.520;13.352;2022-10-23T01:31:50;9.32;;;4.30;;
31043;SDS011;17710;52.520;13.352;2022-10-23T01:34:25;13.68;;;4.40;;
31043;SDS011;17710;52.520;13.352;2022-10-23T01:36:55;13.48;;;4.03;;
31043;SDS011;17710;52.520;13.352;2022-10-23T01:39:24;9.18;;;3.80;;
31043;SDS011;17710;52.520;13.352;2022-10-23T01:41:56;7.57;;;4.18;;
31043;SDS011;17710;52.520;13.352;2022-10-23T01:44:31;8.48;;;4.30;;
31043;SDS011;17710;52.520;13.352;2022-10-23T01:47:01;12.55;;;4.57;;
31043;SDS011;17710;52.520;13.352;2022-10-23T01:49:31;7.93;;;3.88;;
31043;SDS011;17710;52.520;13.352;2022-10-23T01:51:59;7.75;;;4.22;;
31043;SDS011;17710;52.520;13.352;2022-10-23T01:54:29;10.93;;;4.53;;
31043;SDS011;17710;52.520;13.352;2022-10-23T01:56:57;14.85;;;4.05;;
31043;SDS011;17710;52.520;13.352;2022-10-23T01:59:27;8.95;;;4.28;;
31043;SDS011;17710;52.520;13.352;2022-10-23T02:01:59;10.23;;;4.40;;
31043;SDS011;17710;52.520;13.352;2022-10-23T02:04:28;6.55;;;4.15;;
31043;SDS011;17710;52.520;13.352;2022-10-23T02:06:58;9.05;;;5.03;;
31043;SDS011;17710;52.520;13.352;2022-10-23T02:09:25;7.05;;;3.90;;
31043;SDS011;17710;52.520;13.352;2022-10-23T02:11:52;12.48;;;4.35;;
31043;SDS011;17710;52.520;13.352;2022-10-23T02:14:27;11.00;;;4.97;;
31043;SDS011;17710;52.520;13.352;2022-10-23T02:17:04;7.93;;;4.50;;
31043;SDS011;17710;52.520;13.352;2022-10-23T02:19:41;9.02;;;4.00;;
31043;SDS011;17710;52.520;13.352;2022-10-23T02:22:13;13.15;;;4.53;;
31043;SDS011;17710;52.520;13.352;2022-10-23T02:24:45;14.07;;;4.82;;
31043;SDS011;17710;52.520;13.352;2022-10-23T02:27:17;6.30;;;4.10;;
31043;SDS011;17710;52.520;13.352;2022-10-23T02:29:49;12.15;;;4.25;;
31043;SDS011;17710;52.520;13.352;2022-10-23T02:32:20;7.53;;;4.10;;
31043;SDS011;17710;52.520;13.352;2022-10-23T02:34:49;7.32;;;4.03;;
31043;SDS011;17710;52.520;13.352;2022-10-23T02:37:15;9.88;;;4.50;;
31043;SDS011;17710;52.520;13.352;2022-10-23T02:39:41;11.70;;;4.35;;
31043;SDS011;17710;52.520;13.352;2022-10-23T02:42:09;10.25;;;4.53;;
31043;SDS011;17710;52.520;13.352;2022-10-23T02:44:42;8.35;;;4.38;;
31043;SDS011;17710;52.520;13.352;2022-10-23T02:47:18;8.30;;;4.50;;
31043;SDS011;17710;52.520;13.352;2022-10-23T02:49:55;9.98;;;4.10;;
31043;SDS011;17710;52.520;13.352;2022-10-23T02:52:30;12.90;;;4.63;;
31043;SDS011;17710;52.520;13.352;2022-10-23T02:55:13;12.75;;;4.65;;
31043;SDS011;17710;52.520;13.352;2022-10-23T02:57:46;12.93;;;4.43;;
31043;SDS011;17710;52.520;13.352;2022-10-23T03:00:16;10.55;;;4.45;;
31043;SDS011;17710;52.520;13.352;2022-10-23T03:02:48;6.45;;;4.25;;
31043;SDS011;17710;52.520;13.352;2022-10-23T03:05:20;7.93;;;4.65;;
31043;SDS011;17710;52.520;13.352;2022-10-23T03:07:48;15.50;;;4.32;;
31043;SDS011;17710;52.520;13.352;2022-10-23T03:10:15;10.32;;;5.40;;
31043;SDS011;17710;52.520;13.352;2022-10-23T03:12:41;7.35;;;4.50;;
31043;SDS011;17710;52.520;13.352;2022-10-23T03:15:09;14.13;;;5.18;;
31043;SDS011;17710;52.520;13.352;2022-10-23T03:17:36;13.88;;;5.78;;
31043;SDS011;17710;52.520;13.352;2022-10-23T03:20:05;13.23;;;4.95;;
31043;SDS011;17710;52.520;13.352;2022-10-23T03:22:32;7.25;;;4.18;;
31043;SDS011;17710;52.520;13.352;2022-10-23T03:24:59;12.35;;;5.28;;
31043;SDS011;17710;52.520;13.352;2022-10-23T03:27:25;11.05;;;4.43;;
31043;SDS011;17710;52.520;13.352;2022-10-23T03:29:52;19.73;;;4.70;;
31043;SDS011;17710;52.520;13.352;2022-10-23T03:32:18;8.63;;;4.85;;
31043;SDS011;17710;52.520;13.352;2022-10-23T03:34:44;8.95;;;4.55;;
31043;SDS011;17710;52.520;13.352;2022-10-23T03:37:12;9.20;;;4.75;;
31043;SDS011;17710;52.520;13.352;2022-10-23T03:39:39;12.52;;;4.55;;
31043;SDS011;17710;52.520;13.352;2022-10-23T03:42:05;10.13;;;4.90;;
31043;SDS011;17710;52.520;13.352;2022-10-23T03:44:31;7.20;;;4.35;;
31043;SDS011;17710;52.520;13.352;2022-10-23T03:46:58;6.18;;;4.65;;
31043;SDS011;17710;52.520;13.352;2022-10-23T03:49:24;6.65;;;4.63;;
31043;SDS011;17710;52.520;13.352;2022-10-23T03:51:51;10.88;;;4.90;;
31043;SDS011;17710;52.520;13.352;2022-10-23T03:54:20;7.78;;;4.15;;
31043;SDS011;17710;52.520;13.352;2022-10-23T03:56:47;13.82;;;5.05;;
31043;SDS011;17710;52.520;13.352;2022-10-23T03:59:13;12.07;;;4.85;;
31043;SDS011;17710;52.520;13.352;2022-10-23T04:01:40;9.50;;;4.45;;
31043;SDS011;17710;52.520;13.352;2022-10-23T04:04:06;9.13;;;5.18;;
31043;SDS011;17710;52.520;13.352;2022-10-23T04:06:32;10.60;;;5.10;;
31043;SDS011;17710;52.520;13.352;2022-10-23T04:08:59;10.52;;;5.35;;
31043;SDS011;17710;52.520;13.352;2022-10-23T04:11:27;8.00;;;5.45;;
31043;SDS011;17710;52.520;13.352;2022-10-23T04:13:54;10.02;;;5.50;;
31043;SDS011;17710;52.520;13.352;2022-10-23T04:16:20;6.95;;;4.97;;
31043;SDS011;17710;52.520;13.352;2022-10-23T04:18:46;7.55;;;5.07;;
31043;SDS011;17710;52.520;13.352;2022-10-23T04:21:13;10.90;;;5.20;;
31043;SDS011;17710;52.520;13.352;2022-10-23T04:23:39;9.07;;;4.95;;
31043;SDS011;17710;52.520;13.352;2022-10-23T04:26:06;12.25;;;4.90;;
31043;SDS011;17710;52.520;13.352;2022-10-23T04:28:33;9.15;;;5.30;;
31043;SDS011;17710;52.520;13.352;2022-10-23T04:31:00;10.40;;;5.07;;
31043;SDS011;17710;52.520;13.352;2022-10-23T04:33:26;10.63;;;4.95;;
31043;SDS011;17710;52.520;13.352;2022-10-23T04:35:52;13.02;;;5.32;;
31043;SDS011;17710;52.520;13.352;2022-10-23T04:38:19;11.85;;;5.03;;
31043;SDS011;17710;52.520;13.352;2022-10-23T04:40:45;10.50;;;5.65;;
31043;SDS011;17710;52.520;13.352;2022-10-23T04:43:12;12.88;;;6.10;;
31043;SDS011;17710;52.520;13.352;2022-10-23T04:45:39;9.63;;;5.50;;
31043;SDS011;17710;52.520;13.352;2022-10-23T04:48:06;11.88;;;5.07;;
31043;SDS011;17710;52.520;13.352;2022-10-23T04:50:32;12.40;;;5.13;;
31043;SDS011;17710;52.520;13.352;2022-10-23T04:52:58;14.75;;;5.38;;
31043;SDS011;17710;52.520;13.352;2022-10-23T04:55:25;9.55;;;5.30;;
31043;SDS011;17710;52.520;13.352;2022-10-23T04:57:51;8.30;;;4.78;;
31043;SDS011;17710;52.520;13.352;2022-10-23T05:00:17;14.90;;;5.38;;
31043;SDS011;17710;52.520;13.352;2022-10-23T05:02:46;10.57;;;5.68;;
31043;SDS011;17710;52.520;13.352;2022-10-23T05:05:13;10.18;;;5.95;;
31043;SDS011;17710;52.520;13.352;2022-10-23T05:07:39;12.52;;;6.15;;
31043;SDS011;17710;52.520;13.352;2022-10-23T05:10:06;11.75;;;5.57;;
31043;SDS011;17710;52.520;13.352;2022-10-23T05:12:33;9.05;;;5.55;;
31043;SDS011;17710;52.520;13.352;2022-10-23T05:14:59;7.70;;;5.43;;
31043;SDS011;17710;52.520;13.352;2022-10-23T05:17:26;9.90;;;5.65;;
31043;SDS011;17710;52.520;13.352;2022-10-23T05:19:56;10.00;;;5.32;;
31043;SDS011;17710;52.520;13.352;2022-10-23T05:22:28;10.55;;;6.70;;
31043;SDS011;17710;52.520;13.352;2022-10-23T05:24:57;9.32;;;5.82;;
31043;SDS011;17710;52.520;13.352;2022-10-23T05:27:26;12.43;;;6.18;;
31043;SDS011;17710;52.520;13.352;2022-10-23T05:29:52;9.45;;;5.60;;
31043;SDS011;17710;52.520;13.352;2022-10-23T05:32:19;11.55;;;7.20;;
31043;SDS011;17710;52.520;13.352;2022-10-23T05:34:46;9.80;;;6.82;;
31043;SDS011;17710;52.520;13.352;2022-10-23T05:37:14;17.70;;;6.60;;
31043;SDS011;17710;52.520;13.352;2022-10-23T05:39:41;9.68;;;6.20;;
31043;SDS011;17710;52.520;13.352;2022-10-23T05:42:08;13.25;;;7.18;;
31043;SDS011;17710;52.520;13.352;2022-10-23T05:44:34;15.80;;;7.72;;
31043;SDS011;17710;52.520;13.352;2022-10-23T05:47:01;13.18;;;7.45;;
31043;SDS011;17710;52.520;13.352;2022-10-23T05:49:27;13.63;;;7.05;;
31043;SDS011;17710;52.520;13.352;2022-10-23T05:51:54;12.70;;;7.13;;
31043;SDS011;17710;52.520;13.352;2022-10-23T05:54:21;12.68;;;6.72;;
31043;SDS011;17710;52.520;13.352;2022-10-23T05:56:47;12.35;;;6.50;;
31043;SDS011;17710;52.520;13.352;2022-10-23T05:59:14;12.23;;;7.05;;
31043;SDS011;17710;52.520;13.352;2022-10-23T06:01:40;22.23;;;7.50;;
31043;SDS011;17710;52.520;13.352;2022-10-23T06:04:07;15.07;;;6.90;;
31043;SDS011;17710;52.520;13.352;2022-10-23T06:06:33;14.35;;;6.47;;
31043;SDS011;17710;52.520;13.352;2022-10-23T06:09:00;13.48;;;7.65;;
31043;SDS011;17710;52.520;13.352;2022-10-23T06:11:28;8.85;;;6.88;;
31043;SDS011;17710;52.520;13.352;2022-10-23T06:13:55;16.45;;;8.02;;
31043;SDS011;17710;52.520;13.352;2022-10-23T06:16:22;12.02;;;7.30;;
31043;SDS011;17710;52.520;13.352;2022-10-23T06:18:50;16.23;;;7.45;;
31043;SDS011;17710;52.520;13.352;2022-10-23T06:21:17;13.73;;;6.95;;
31043;SDS011;17710;52.520;13.352;2022-10-23T06:23:44;11.15;;;6.75;;
31043;SDS011;17710;52.520;13.352;2022-10-23T06:26:11;19.05;;;7.40;;
31043;SDS011;17710;52.520;13.352;2022-10-23T06:28:41;10.27;;;6.88;;
31043;SDS011;17710;52.520;13.352;2022-10-23T06:31:08;13.20;;;6.53;;
31043;SDS011;17710;52.520;13.352;2022-10-23T06:33:36;13.27;;;6.63;;
31043;SDS011;17710;52.520;13.352;2022-10-23T06:36:02;11.30;;;6.50;;
31043;SDS011;17710;52.520;13.352;2022-10-23T06:38:30;13.35;;;6.45;;
31043;SDS011;17710;52.520;13.352;2022-10-23T06:41:00;12.68;;;6.97;;
31043;SDS011;17710;52.520;13.352;2022-10-23T06:43:27;12.63;;;6.85;;
31043;SDS011;17710;52.520;13.352;2022-10-23T06:45:54;15.27;;;7.72;;
31043;SDS011;17710;52.520;13.352;2022-10-23T06:48:21;12.13;;;6.93;;
31043;SDS011;17710;52.520;13.352;2022-10-23T06:50:47;12.10;;;6.95;;
31043;SDS011;17710;52.520;13.352;2022-10-23T06:53:14;16.70;;;7.78;;
31043;SDS011;17710;52.520;13.352;2022-10-23T06:55:40;13.02;;;7.38;;
31043;SDS011;17710;52.520;13.352;2022-10-23T06:58:06;11.27;;;7.13;;
31043;SDS011;17710;52.520;13.352;2022-10-23T07:00:34;10.95;;;6.82;;
31043;SDS011;17710;52.520;13.352;2022-10-23T07:03:02;10.45;;;6.97;;
31043;SDS011;17710;52.520;13.352;2022-10-23T07:05:29;15.90;;;7.03;;
31043;SDS011;17710;52.520;13.352;2022-10-23T07:07:55;13.45;;;6.78;;
31043;SDS011;17710;52.520;13.352;2022-10-23T07:10:22;15.75;;;7.53;;
31043;SDS011;17710;52.520;13.352;2022-10-23T07:12:48;13.07;;;8.02;;
31043;SDS011;17710;52.520;13.352;2022-10-23T07:15:15;15.23;;;7.63;;
31043;SDS011;17710;52.520;13.352;2022-10-23T07:17:41;11.25;;;7.43;;
31043;SDS011;17710;52.520;13.352;2022-10-23T07:20:09;12.10;;;7.40;;
31043;SDS011;17710;52.520;13.352;2022-10-23T07:22:36;16.35;;;7.95;;
31043;SDS011;17710;52.520;13.352;2022-10-23T07:25:02;11.80;;;7.30;;
31043;SDS011;17710;52.520;13.352;2022-10-23T07:27:29;13.52;;;8.23;;
31043;SDS011;17710;52.520;13.352;2022-10-23T07:29:56;16.45;;;7.88;;
31043;SDS011;17710;52.520;13.352;2022-10-23T07:32:22;13.45;;;8.13;;
31043;SDS011;17710;52.520;13.352;2022-10-23T07:34:52;14.18;;;7.40;;
31043;SDS011;17710;52.520;13.352;2022-10-23T07:37:19;20.33;;;7.82;;
31043;SDS011;17710;52.520;13.352;2022-10-23T07:39:46;18.42;;;8.35;;
31043;SDS011;17710;52.520;13.352;2022-10-23T07:42:12;13.85;;;8.38;;
31043;SDS011;17710;52.520;13.352;2022-10-23T07:44:41;12.20;;;7.47;;
31043;SDS011;17710;52.520;13.352;2022-10-23T07:47:08;14.65;;;7.70;;
31043;SDS011;17710;52.520;13.352;2022-10-23T07:49:34;16.52;;;7.88;;
31043;SDS011;17710;52.520;13.352;2022-10-23T07:52:01;9.77;;;6.70;;
31043;SDS011;17710;52.520;13.352;2022-10-23T07:54:31;11.18;;;7.45;;
31043;SDS011;17710;52.520;13.352;2022-10-23T07:56:57;8.75;;;6.55;;
31043;SDS011;17710;52.520;13.352;2022-10-23T07:59:24;11.93;;;6.93;;
31043;SDS011;17710;52.520;13.352;2022-10-23T08:01:50;13.32;;;6.55;;
31043;SDS011;17710;52.520;13.352;2022-10-23T08:04:20;12.57;;;7.40;;
31043;SDS011;17710;52.520;13.352;2022-10-23T08:06:47;12.82;;;7.25;;
31043;SDS011;17710;52.520;13.352;2022-10-23T08:09:13;10.98;;;6.90;;
31043;SDS011;17710;52.520;13.352;2022-10-23T08:11:41;11.75;;;6.90;;
31043;SDS011;17710;52.520;13.352;2022-10-23T08:14:08;19.92;;;7.30;;
31043;SDS011;17710;52.520;13.352;2022-10-23T08:16:35;11.93;;;6.38;;
31043;SDS011;17710;52.520;13.352;2022-10-23T08:19:03;11.10;;;6.60;;
31043;SDS011;17710;52.520;13.352;2022-10-23T08:21:31;12.60;;;6.68;;
31043;SDS011;17710;52.520;13.352;2022-10-23T08:23:58;11.73;;;7.65;;
31043;SDS011;17710;52.520;13.352;2022-10-23T08:26:25;10.27;;;6.35;;
31043;SDS011;17710;52.520;13.352;2022-10-23T08:28:55;7.30;;;5.97;;
31043;SDS011;17710;52.520;13.352;2022-10-23T08:31:23;9.30;;;5.95;;
31043;SDS011;17710;52.520;13.352;2022-10-23T08:33:50;7.57;;;4.95;;
31043;SDS011;17710;52.520;13.352;2022-10-23T08:36:17;9.90;;;5.68;;
31043;SDS011;17710;52.520;13.352;2022-10-23T08:38:46;11.70;;;5.53;;
31043;SDS011;17710;52.520;13.352;2022-10-23T08:41:16;11.13;;;6.00;;
31043;SDS011;17710;52.520;13.352;2022-10-23T08:43:49;7.72;;;5.10;;
31043;SDS011;17710;52.520;13.352;2022-10-23T08:46:22;10.70;;;4.90;;
31043;SDS011;17710;52.520;13.352;2022-10-23T08:48:53;14.35;;;5.85;;
31043;SDS011;17710;52.520;13.352;2022-10-23T08:51:24;12.85;;;4.82;;
31043;SDS011;17710;52.520;13.352;2022-10-23T08:53:55;10.68;;;4.70;;
31043;SDS011;17710;52.520;13.352;2022-10-23T08:56:29;8.07;;;4.30;;
31043;SDS011;17710;52.520;13.352;2022-10-23T08:59:00;7.85;;;4.20;;
31043;SDS011;17710;52.520;13.352;2022-10-23T09:01:36;10.88;;;4.30;;
31043;SDS011;17710;52.520;13.352;2022-10-23T09:04:05;9.32;;;4.20;;
31043;SDS011;17710;52.520;13.352;2022-10-23T09:06:35;12.57;;;4.30;;
31043;SDS011;17710;52.520;13.352;2022-10-23T09:09:19;10.73;;;3.95;;
31043;SDS011;17710;52.520;13.352;2022-10-23T09:12:01;7.50;;;4.00;;
31043;SDS011;17710;52.520;13.352;2022-10-23T09:14:50;7.88;;;4.10;;
31043;SDS011;17710;52.520;13.352;2022-10-23T09:17:31;9.98;;;3.53;;
31043;SDS011;17710;52.520;13.352;2022-10-23T09:20:00;12.85;;;4.35;;
31043;SDS011;17710;52.520;13.352;2022-10-23T09:22:37;9.60;;;3.60;;
31043;SDS011;17710;52.520;13.352;2022-10-23T09:25:07;8.88;;;3.58;;
31043;SDS011;17710;52.520;13.352;2022-10-23T09:27:34;11.18;;;4.18;;
31043;SDS011;17710;52.520;13.352;2022-10-23T09:30:01;13.85;;;5.13;;
31043;SDS011;17710;52.520;13.352;2022-10-23T09:32:36;6.10;;;4.32;;
31043;SDS011;17710;52.520;13.352;2022-10-23T09:35:03;9.73;;;4.33;;
31043;SDS011;17710;52.520;13.352;2022-10-23T09:37:32;6.88;;;4.10;;
31043;SDS011;17710;52.520;13.352;2022-10-23T09:40:00;9.45;;;4.45;;
31043;SDS011;17710;52.520;13.352;2022-10-23T09:42:28;11.50;;;4.60;;
31043;SDS011;17710;52.520;13.352;2022-10-23T09:44:54;10.13;;;3.67;;
31043;SDS011;17710;52.520;13.352;2022-10-23T09:47:22;7.65;;;4.03;;
31043;SDS011;17710;52.520;13.352;2022-10-23T09:49:52;9.40;;;4.00;;
31043;SDS011;17710;52.520;13.352;2022-10-23T09:52:23;7.15;;;3.55;;
31043;SDS011;17710;52.520;13.352;2022-10-23T09:54:54;6.95;;;3.35;;
31043;SDS011;17710;52.520;13.352;2022-10-23T09:57:24;8.30;;;3.58;;
31043;SDS011;17710;52.520;13.352;2022-10-23T09:59:55;11.82;;;3.33;;
31043;SDS011;17710;52.520;13.352;2022-10-23T10:02:25;7.38;;;3.47;;
31043;SDS011;17710;52.520;13.352;2022-10-23T10:04:55;9.60;;;2.53;;
31043;SDS011;17710;52.520;13.352;2022-10-23T10:07:24;5.20;;;3.13;;
31043;SDS011;17710;52.520;13.352;2022-10-23T10:09:53;11.00;;;3.42;;
31043;SDS011;17710;52.520;13.352;2022-10-23T10:12:34;8.25;;;3.10;;
31043;SDS011;17710;52.520;13.352;2022-10-23T10:15:15;6.93;;;2.70;;
31043;SDS011;17710;52.520;13.352;2022-10-23T10:17:51;5.18;;;2.30;;
31043;SDS011;17710;52.520;13.352;2022-10-23T10:20:39;13.07;;;3.88;;
31043;SDS011;17710;52.520;13.352;2022-10-23T10:23:17;5.18;;;2.38;;
31043;SDS011;17710;52.520;13.352;2022-10-23T10:25:55;4.88;;;2.20;;
31043;SDS011;17710;52.520;13.352;2022-10-23T10:28:31;3.93;;;1.97;;
31043;SDS011;17710;52.520;13.352;2022-10-23T10:31:14;5.45;;;2.00;;
31043;SDS011;17710;52.520;13.352;2022-10-23T10:33:47;8.18;;;1.85;;
31043;SDS011;17710;52.520;13.352;2022-10-23T10:36:33;6.78;;;1.40;;
31043;SDS011;17710;52.520;13.352;2022-10-23T10:39:10;7.47;;;2.00;;
31043;SDS011;17710;52.520;13.352;2022-10-23T10:41:52;6.90;;;1.58;;
31043;SDS011;17710;52.520;13.352;2022-10-23T10:44:36;5.40;;;1.77;;
31043;SDS011;17710;52.520;13.352;2022-10-23T10:47:13;5.88;;;1.70;;
31043;SDS011;17710;52.520;13.352;2022-10-23T10:49:45;4.70;;;1.65;;
31043;SDS011;17710;52.520;13.352;2022-10-23T10:52:22;3.38;;;1.67;;
31043;SDS011;17710;52.520;13.352;2022-10-23T10:54:57;7.85;;;1.98;;
31043;SDS011;17710;52.520;13.352;2022-10-23T10:57:35;6.18;;;2.33;;
31043;SDS011;17710;52.520;13.352;2022-10-23T11:00:11;7.88;;;2.22;;
31043;SDS011;17710;52.520;13.352;2022-10-23T11:02:41;4.20;;;1.75;;
31043;SDS011;17710;52.520;13.352;2022-10-23T11:05:15;4.43;;;1.60;;
31043;SDS011;17710;52.520;13.352;2022-10-23T11:07:55;7.63;;;2.15;;
31043;SDS011;17710;52.520;13.352;2022-10-23T11:10:25;5.68;;;1.75;;
31043;SDS011;17710;52.520;13.352;2022-10-23T11:12:53;6.50;;;2.00;;
31043;SDS011;17710;52.520;13.352;2022-10-23T11:15:20;8.73;;;2.00;;
31043;SDS011;17710;52.520;13.352;2022-10-23T11:17:52;10.10;;;1.90;;
31043;SDS011;17710;52.520;13.352;2022-10-23T11:20:33;7.25;;;1.90;;
31043;SDS011;17710;52.520;13.352;2022-10-23T11:23:26;5.28;;;1.80;;
31043;SDS011;17710;52.520;13.352;2022-10-23T11:26:10;6.30;;;2.08;;
31043;SDS011;17710;52.520;13.352;2022-10-23T11:28:49;9.88;;;2.00;;
31043;SDS011;17710;52.520;13.352;2022-10-23T11:31:28;4.97;;;1.63;;
31043;SDS011;17710;52.520;13.352;2022-10-23T11:34:07;5.57;;;2.00;;
31043;SDS011;17710;52.520;13.352;2022-10-23T11:36:49;5.63;;;1.90;;
31043;SDS011;17710;52.520;13.352;2022-10-23T11:39:20;5.32;;;1.88;;
31043;SDS011;17710;52.520;13.352;2022-10-23T11:41:53;5.57;;;1.70;;
31043;SDS011;17710;52.520;13.352;2022-10-23T11:44:26;6.55;;;1.90;;
31043;SDS011;17710;52.520;13.352;2022-10-23T11:47:05;3.90;;;1.67;;
31043;SDS011;17710;52.520;13.352;2022-10-23T11:49:51;7.57;;;1.30;;
31043;SDS011;17710;52.520;13.352;2022-10-23T11:52:37;6.47;;;1.55;;
31043;SDS011;17710;52.520;13.352;2022-10-23T11:55:15;6.30;;;1.95;;
31043;SDS011;17710;52.520;13.352;2022-10-23T11:57:43;3.42;;;1.35;;
31043;SDS011;17710;52.520;13.352;2022-10-23T12:00:17;9.73;;;2.20;;
31043;SDS011;17710;52.520;13.352;2022-10-23T12:02:48;4.28;;;1.55;;
31043;SDS011;17710;52.520;13.352;2022-10-23T12:05:24;8.15;;;1.40;;
31043;SDS011;17710;52.520;13.352;2022-10-23T12:07:56;3.47;;;1.50;;
31043;SDS011;17710;52.520;13.352;2022-10-23T12:10:28;5.32;;;1.35;;
31043;SDS011;17710;52.520;13.352;2022-10-23T12:12:58;7.15;;;1.58;;
31043;SDS011;17710;52.520;13.352;2022-10-23T12:15:28;8.38;;;1.60;;
31043;SDS011;17710;52.520;13.352;2022-10-23T12:18:05;7.93;;;1.85;;
31043;SDS011;17710;52.520;13.352;2022-10-23T12:20:36;4.53;;;1.30;;
31043;SDS011;17710;52.520;13.352;2022-10-23T12:26:18;6.90;;;1.30;;
31043;SDS011;17710;52.520;13.352;2022-10-23T12:28:56;9.30;;;1.58;;
31043;SDS011;17710;52.520;13.352;2022-10-23T12:31:32;14.00;;;2.20;;
31043;SDS011;17710;52.520;13.352;2022-10-23T12:34:08;4.78;;;1.42;;
31043;SDS011;17710;52.520;13.352;2022-10-23T12:36:56;7.90;;;2.05;;
31043;SDS011;17710;52.520;13.352;2022-10-23T12:39:33;4.07;;;1.80;;
31043;SDS011;17710;52.520;13.352;2022-10-23T12:42:02;9.07;;;1.55;;
31043;SDS011;17710;52.520;13.352;2022-10-23T12:44:30;10.82;;;1.33;;
31043;SDS011;17710;52.520;13.352;2022-10-23T12:46:58;6.20;;;1.45;;
31043;SDS011;17710;52.520;13.352;2022-10-23T12:49:28;4.15;;;1.45;;
31043;SDS011;17710;52.520;13.352;2022-10-23T12:51:58;6.05;;;1.13;;
31043;SDS011;17710;52.520;13.352;2022-10-23T12:54:29;7.95;;;1.30;;
31043;SDS011;17710;52.520;13.352;2022-10-23T12:56:57;5.72;;;1.42;;
31043;SDS011;17710;52.520;13.352;2022-10-23T12:59:27;7.07;;;1.77;;
31043;SDS011;17710;52.520;13.352;2022-10-23T13:02:01;2.85;;;1.20;;
31043;SDS011;17710;52.520;13.352;2022-10-23T13:04:39;11.75;;;1.92;;
31043;SDS011;17710;52.520;13.352;2022-10-23T13:07:06;6.13;;;1.50;;
31043;SDS011;17710;52.520;13.352;2022-10-23T13:09:35;5.80;;;1.80;;
31043;SDS011;17710;52.520;13.352;2022-10-23T13:12:05;8.00;;;1.90;;
31043;SDS011;17710;52.520;13.352;2022-10-23T13:14:36;5.40;;;1.40;;
31043;SDS011;17710;52.520;13.352;2022-10-23T13:17:10;5.82;;;1.70;;
31043;SDS011;17710;52.520;13.352;2022-10-23T13:19:37;3.30;;;1.50;;
31043;SDS011;17710;52.520;13.352;2022-10-23T13:22:18;4.90;;;1.80;;
31043;SDS011;17710;52.520;13.352;2022-10-23T13:24:46;5.38;;;1.80;;
31043;SDS011;17710;52.520;13.352;2022-10-23T13:27:30;5.38;;;2.00;;
31043;SDS011;17710;52.520;13.352;2022-10-23T13:30:00;4.88;;;1.70;;
31043;SDS011;17710;52.520;13.352;2022-10-23T13:32:27;10.05;;;2.10;;
31043;SDS011;17710;52.520;13.352;2022-10-23T13:34:56;6.32;;;1.63;;
31043;SDS011;17710;52.520;13.352;2022-10-23T13:37:26;8.13;;;3.00;;
31043;SDS011;17710;52.520;13.352;2022-10-23T13:40:04;4.13;;;1.70;;
31043;SDS011;17710;52.520;13.352;2022-10-23T13:42:33;5.05;;;1.95;;
31043;SDS011;17710;52.520;13.352;2022-10-23T13:45:02;5.75;;;2.10;;
31043;SDS011;17710;52.520;13.352;2022-10-23T13:47:29;3.30;;;1.73;;
31043;SDS011;17710;52.520;13.352;2022-10-23T13:49:56;4.05;;;1.70;;
31043;SDS011;17710;52.520;13.352;2022-10-23T13:52:22;8.82;;;2.03;;
31043;SDS011;17710;52.520;13.352;2022-10-23T13:54:49;4.75;;;1.50;;
31043;SDS011;17710;52.520;13.352;2022-10-23T13:57:15;5.20;;;1.85;;
31043;SDS011;17710;52.520;13.352;2022-10-23T13:59:42;7.38;;;2.20;;
31043;SDS011;17710;52.520;13.352;2022-10-23T14:02:13;7.28;;;2.17;;
31043;SDS011;17710;52.520;13.352;2022-10-23T14:04:44;5.47;;;1.80;;
31043;SDS011;17710;52.520;13.352;2022-10-23T14:07:11;8.07;;;1.75;;
31043;SDS011;17710;52.520;13.352;2022-10-23T14:09:37;6.60;;;1.60;;
31043;SDS011;17710;52.520;13.352;2022-10-23T14:12:04;11.10;;;2.35;;
31043;SDS011;17710;52.520;13.352;2022-10-23T14:14:31;4.25;;;1.90;;
31043;SDS011;17710;52.520;13.352;2022-10-23T14:16:57;4.90;;;1.67;;
31043;SDS011;17710;52.520;13.352;2022-10-23T14:19:25;4.15;;;1.27;;
31043;SDS011;17710;52.520;13.352;2022-10-23T14:21:52;15.80;;;2.70;;
31043;SDS011;17710;52.520;13.352;2022-10-23T14:24:18;3.60;;;1.40;;
31043;SDS011;17710;52.520;13.352;2022-10-23T14:26:44;6.95;;;2.17;;
31043;SDS011;17710;52.520;13.352;2022-10-23T14:29:11;5.75;;;2.05;;
31043;SDS011;17710;52.520;13.352;2022-10-23T14:31:37;10.65;;;1.45;;
31043;SDS011;17710;52.520;13.352;2022-10-23T14:34:04;4.45;;;1.30;;
31043;SDS011;17710;52.520;13.352;2022-10-23T14:36:31;8.05;;;2.10;;
31043;SDS011;17710;52.520;13.352;2022-10-23T14:38:58;8.43;;;1.98;;
31043;SDS011;17710;52.520;13.352;2022-10-23T14:41:25;6.65;;;1.80;;
31043;SDS011;17710;52.520;13.352;2022-10-23T14:43:52;4.30;;;1.55;;
31043;SDS011;17710;52.520;13.352;2022-10-23T14:46:20;5.15;;;1.70;;
31043;SDS011;17710;52.520;13.352;2022-10-23T14:48:48;6.03;;;1.90;;
31043;SDS011;17710;52.520;13.352;2022-10-23T14:51:15;6.40;;;1.65;;